Time,TemperatureF,DewpointF,PressureIn,WindDirection,WindDirectionDegrees,WindSpeedMPH,WindSpeedGustMPH,Humidity,HourlyPrecipIn,Conditions,Clouds,dailyrainin,SoftwareType,DateUTC
2013-01-25 12:33:00,74.4,58.2,30.26,North,6,3.4,3.4,57,0.90,,---,0.00,VWS V13.01,2013-01-25 17:33:00,
2013-01-25 12:34:00,74.4,58.9,30.26,North,352,3.9,7.9,58,0.90,,---,0.00,VWS V13.01,2013-01-25 17:34:00,
2013-01-25 12:38:00,74.6,58.1,30.25,NE,42,7.7,7.7,56,0.90,,---,0.00,VWS V13.01,2013-01-25 17:38:00,
2013-01-25 12:43:00,74.4,58.4,30.25,NE,37,0.7,4.1,57,0.90,,---,0.00,VWS V13.01,2013-01-25 17:43:00,
2013-01-25 12:48:00,74.7,58.9,30.24,NE,39,3.2,9.1,58,0.90,,---,0.00,VWS V13.01,2013-01-25 17:48:00,
2013-01-25 12:53:00,75.0,58.5,30.24,North,7,4.2,7.9,56,0.90,,---,0.00,VWS V13.01,2013-01-25 17:53:00,
2013-01-25 12:58:00,74.8,59.3,30.24,North,8,5.0,5.1,59,0.90,,---,0.00,VWS V13.01,2013-01-25 17:58:00,
2013-01-25 13:03:00,74.8,58.9,30.23,NNE,15,2.8,4.5,58,0.90,,---,0.00,VWS V13.01,2013-01-25 18:03:00,
2013-01-25 13:09:00,74.5,58.6,30.23,WNW,300,4.9,9.9,58,0.90,,---,0.00,VWS V13.01,2013-01-25 18:09:00,
2013-01-25 13:14:00,74.8,59.2,30.23,NNW,345,2.0,3.5,58,0.90,,---,0.00,VWS V13.01,2013-01-25 18:14:00,
2013-01-25 13:19:00,74.6,59.5,30.22,North,7,7.0,8.0,59,0.90,,---,0.00,VWS V13.01,2013-01-25 18:19:00,
2013-01-25 13:24:00,74.6,59.6,30.22,NE,41,4.8,6.0,60,0.90,,---,0.00,VWS V13.01,2013-01-25 18:24:00,
2013-01-25 13:29:00,74.5,59.3,30.22,ENE,58,7.9,9.8,59,0.90,,---,0.00,VWS V13.01,2013-01-25 18:29:00,
2013-01-25 13:34:00,74.1,59.6,30.22,North,357,4.2,5.1,60,0.00,,---,0.00,VWS V13.01,2013-01-25 18:34:00,
2013-01-25 13:39:00,73.5,59.3,30.21,North,359,1.4,3.1,61,0.00,,---,0.00,VWS V13.01,2013-01-25 18:39:00,
2013-01-25 13:44:00,73.4,59.3,30.21,NE,49,7.2,8.5,61,0.00,,---,0.00,VWS V13.01,2013-01-25 18:44:00,
2013-01-25 13:49:00,73.5,59.4,30.21,North,10,2.2,5.3,61,0.00,,---,0.00,VWS V13.01,2013-01-25 18:49:00,
2013-01-25 13:54:00,73.9,58.0,30.20,NE,46,6.4,7.8,58,0.00,,---,0.00,VWS V13.01,2013-01-25 18:54:00,
2013-01-25 13:59:00,74.0,56.4,30.20,ENE,60,4.9,5.5,54,0.00,,---,0.00,VWS V13.01,2013-01-25 18:59:00,
2013-01-25 14:04:00,74.9,56.9,30.20,ENE,75,3.5,3.5,54,0.00,,---,0.00,VWS V13.01,2013-01-25 19:04:00,
2013-01-25 14:09:00,74.9,55.2,30.20,NE,44,5.1,6.2,50,0.00,,---,0.00,VWS V13.01,2013-01-25 19:09:00,
2013-01-25 14:14:00,75.0,55.0,30.20,East,100,6.0,6.4,50,0.00,,---,0.00,VWS V13.01,2013-01-25 19:14:00,
2013-01-25 14:19:00,74.9,53.8,30.20,ENE,63,8.2,11.4,48,0.00,,---,0.00,VWS V13.01,2013-01-25 19:19:00,
2013-01-25 14:24:00,74.8,54.3,30.19,NE,55,4.3,6.2,49,0.00,,---,0.00,VWS V13.01,2013-01-25 19:24:00,
2013-01-25 14:29:00,75.0,54.4,30.19,NNE,32,4.1,5.2,49,0.00,,---,0.00,VWS V13.01,2013-01-25 19:29:00,
2013-01-25 14:34:00,75.0,54.2,30.19,East,79,2.8,5.5,48,0.00,,---,0.00,VWS V13.01,2013-01-25 19:34:00,
2013-01-25 14:39:00,75.3,55.0,30.19,ENE,65,2.8,2.8,49,0.00,,---,0.00,VWS V13.01,2013-01-25 19:39:00,
2013-01-25 14:44:00,75.0,55.0,30.19,ENE,68,6.8,6.8,50,0.00,,---,0.00,VWS V13.01,2013-01-25 19:44:00,
2013-01-25 14:49:00,75.1,55.0,30.18,ESE,107,2.2,3.8,50,0.00,,---,0.00,VWS V13.01,2013-01-25 19:49:00,
2013-01-25 14:54:00,74.9,55.5,30.18,NNE,28,9.1,12.3,51,0.00,,---,0.00,VWS V13.01,2013-01-25 19:54:00,
2013-01-25 14:59:00,74.8,55.8,30.18,NE,45,4.0,6.5,52,0.00,,---,0.00,VWS V13.01,2013-01-25 19:59:00,
2013-01-25 15:04:00,75.0,55.7,30.18,NE,51,3.4,8.6,51,0.00,,---,0.00,VWS V13.01,2013-01-25 20:04:00,
2013-01-25 15:09:00,75.0,55.6,30.18,ESE,111,3.2,3.7,51,0.00,,---,0.00,VWS V13.01,2013-01-25 20:09:00,
2013-01-25 15:15:00,75.2,55.3,30.18,NE,51,1.6,10.4,50,0.00,,---,0.00,VWS V13.01,2013-01-25 20:15:00,
2013-01-25 15:20:00,74.7,55.5,30.17,East,100,2.4,8.9,51,0.00,,---,0.00,VWS V13.01,2013-01-25 20:20:00,
2013-01-25 15:25:00,74.7,55.8,30.18,NE,53,0.0,1.2,52,0.00,,---,0.00,VWS V13.01,2013-01-25 20:25:00,
2013-01-25 15:30:00,74.8,56.5,30.17,East,90,2.9,4.5,53,0.00,,---,0.00,VWS V13.01,2013-01-25 20:30:00,
2013-01-25 15:35:00,74.8,56.3,30.17,SSE,160,1.2,3.6,52,0.00,,---,0.00,VWS V13.01,2013-01-25 20:35:00,
2013-01-25 15:40:00,75.0,56.8,30.17,NNE,28,5.2,5.2,53,0.00,,---,0.00,VWS V13.01,2013-01-25 20:40:00,
2013-01-25 15:45:00,75.0,56.0,30.17,NE,35,5.2,8.2,52,0.00,,---,0.00,VWS V13.01,2013-01-25 20:45:00,
2013-01-25 15:50:00,74.6,56.9,30.17,NE,45,3.6,4.8,54,0.00,,---,0.00,VWS V13.01,2013-01-25 20:50:00,
2013-01-25 15:55:00,74.4,56.6,30.17,NE,46,5.8,7.8,54,0.00,,---,0.00,VWS V13.01,2013-01-25 20:55:00,
2013-01-25 16:00:00,74.3,57.2,30.17,ENE,63,3.9,3.9,55,0.00,,---,0.00,VWS V13.01,2013-01-25 21:00:00,
2013-01-25 16:05:00,74.1,57.0,30.17,NE,56,4.2,4.2,55,0.00,,---,0.00,VWS V13.01,2013-01-25 21:05:00,
2013-01-25 16:10:00,73.9,57.2,30.17,East,86,4.5,4.5,56,0.00,,---,0.00,VWS V13.01,2013-01-25 21:10:00,
2013-01-25 16:15:00,74.1,57.4,30.17,NE,37,5.0,5.8,56,0.00,,---,0.00,VWS V13.01,2013-01-25 21:15:00,
2013-01-25 16:20:00,74.1,57.6,30.17,NE,56,2.4,4.3,56,0.00,,---,0.00,VWS V13.01,2013-01-25 21:20:00,
2013-01-25 16:25:00,74.1,57.7,30.17,North,356,1.9,5.5,56,0.00,,---,0.00,VWS V13.01,2013-01-25 21:25:00,
2013-01-25 16:30:00,74.3,57.6,30.17,North,1,2.9,6.4,56,0.00,,---,0.00,VWS V13.01,2013-01-25 21:30:00,
2013-01-25 16:35:00,74.1,57.5,30.17,ENE,58,0.0,0.9,56,0.00,,---,0.00,VWS V13.01,2013-01-25 21:35:00,
2013-01-25 16:40:00,74.3,57.5,30.17,ENE,62,3.7,4.1,56,0.00,,---,0.00,VWS V13.01,2013-01-25 21:40:00,
2013-01-25 16:45:00,74.2,57.8,30.18,ENE,59,1.0,3.0,57,0.00,,---,0.00,VWS V13.01,2013-01-25 21:45:00,
2013-01-25 16:50:00,73.9,57.7,30.18,North,10,2.1,3.4,57,0.00,,---,0.00,VWS V13.01,2013-01-25 21:50:00,
2013-01-25 16:55:00,73.6,57.7,30.18,NE,39,2.4,4.9,58,0.00,,---,0.00,VWS V13.01,2013-01-25 21:55:00,
2013-01-25 17:00:00,73.7,57.6,30.18,ENE,62,5.2,5.2,57,0.00,,---,0.00,VWS V13.01,2013-01-25 22:00:00,
2013-01-25 17:05:00,73.5,57.5,30.18,NNE,20,3.9,4.9,57,0.00,,---,0.00,VWS V13.01,2013-01-25 22:05:00,
2013-01-25 17:10:00,73.4,57.5,30.17,NNW,342,0.0,0.0,58,0.00,,---,0.00,VWS V13.01,2013-01-25 22:10:00,
2013-01-25 17:15:00,73.2,57.7,30.18,NE,45,2.4,2.4,58,0.00,,---,0.00,VWS V13.01,2013-01-25 22:15:00,
2013-01-25 17:20:00,73.1,57.7,30.18,NE,52,1.9,2.5,58,0.00,,---,0.00,VWS V13.01,2013-01-25 22:20:00,
2013-01-25 17:25:00,73.0,57.2,30.18,NE,53,1.9,2.3,58,0.00,,---,0.00,VWS V13.01,2013-01-25 22:25:00,
2013-01-25 17:30:00,72.8,57.4,30.18,NE,37,4.8,5.5,58,0.00,,---,0.00,VWS V13.01,2013-01-25 22:30:00,
2013-01-25 17:35:00,72.7,57.8,30.18,ENE,63,6.8,6.8,59,0.00,,---,0.00,VWS V13.01,2013-01-25 22:35:00,
2013-01-25 17:40:00,72.6,57.9,30.18,NNE,32,0.0,1.4,60,0.00,,---,0.00,VWS V13.01,2013-01-25 22:40:00,
2013-01-25 17:45:00,72.2,57.6,30.18,North,3,2.4,2.4,60,0.00,,---,0.00,VWS V13.01,2013-01-25 22:45:00,
2013-01-25 17:50:00,72.2,57.9,30.18,NNW,343,2.6,4.2,61,0.00,,---,0.00,VWS V13.01,2013-01-25 22:50:00,
2013-01-25 17:55:00,71.9,58.0,30.18,North,349,2.4,4.2,62,0.00,,---,0.00,VWS V13.01,2013-01-25 22:55:00,
2013-01-25 18:00:00,71.6,58.0,30.18,NE,41,1.2,2.4,62,0.00,,---,0.00,VWS V13.01,2013-01-25 23:00:00,
2013-01-25 18:05:00,71.3,57.8,30.18,NNE,20,1.3,3.6,62,0.00,,---,0.00,VWS V13.01,2013-01-25 23:05:00,
2013-01-25 18:09:00,71.2,57.8,30.18,NNE,30,1.5,1.5,63,0.00,,---,0.00,VWS V13.01,2013-01-25 23:09:00,
2013-01-25 18:14:00,71.0,57.7,30.18,NE,48,0.0,0.0,63,0.00,,---,0.00,VWS V13.01,2013-01-25 23:14:00,
2013-01-25 18:19:00,71.0,57.8,30.19,NE,48,0.0,0.0,63,0.00,,---,0.00,VWS V13.01,2013-01-25 23:19:00,
2013-01-25 18:24:00,70.8,57.6,30.19,NE,48,0.0,0.0,63,0.00,,---,0.00,VWS V13.01,2013-01-25 23:24:00,
2013-01-25 18:29:00,70.6,57.6,30.19,NE,48,0.0,0.0,63,0.00,,---,0.00,VWS V13.01,2013-01-25 23:29:00,
2013-01-25 18:34:00,70.3,57.5,30.19,NE,48,0.0,0.0,64,0.00,,---,0.00,VWS V13.01,2013-01-25 23:34:00,
2013-01-25 18:39:00,70.1,57.5,30.19,ENE,66,0.0,0.0,64,0.00,,---,0.00,VWS V13.01,2013-01-25 23:39:00,
2013-01-25 18:44:00,70.0,57.8,30.19,ENE,66,0.0,0.0,65,0.00,,---,0.00,VWS V13.01,2013-01-25 23:44:00,
2013-01-25 18:49:00,69.8,57.9,30.19,ENE,66,0.0,0.0,66,0.00,,---,0.00,VWS V13.01,2013-01-25 23:49:00,
2013-01-25 18:54:00,69.3,57.8,30.19,ENE,66,0.0,0.0,67,0.00,,---,0.00,VWS V13.01,2013-01-25 23:54:00,
2013-01-25 18:59:00,69.2,58.0,30.19,ENE,66,0.0,0.0,68,0.00,,---,0.00,VWS V13.01,2013-01-25 23:59:00,
2013-01-25 19:04:00,68.8,57.8,30.19,ENE,66,0.0,0.0,68,0.00,,---,0.00,VWS V13.01,2013-01-26 00:04:00,
2013-01-25 19:09:00,68.6,57.9,30.19,ENE,66,0.0,0.0,69,0.00,,---,0.00,VWS V13.01,2013-01-26 00:09:00,
2013-01-25 19:14:00,68.4,57.7,30.19,ENE,66,0.0,0.0,69,0.00,,---,0.00,VWS V13.01,2013-01-26 00:14:00,
2013-01-25 19:19:00,68.4,57.8,30.19,ENE,66,0.0,0.0,69,0.00,,---,0.00,VWS V13.01,2013-01-26 00:19:00,
2013-01-25 19:24:00,68.4,58.0,30.19,ENE,66,0.0,0.0,69,0.00,,---,0.00,VWS V13.01,2013-01-26 00:24:00,
2013-01-25 19:29:00,68.5,58.0,30.19,ENE,66,0.0,0.0,69,0.00,,---,0.00,VWS V13.01,2013-01-26 00:29:00,
2013-01-25 19:34:00,68.6,58.0,30.19,ENE,66,0.0,0.0,69,0.00,,---,0.00,VWS V13.01,2013-01-26 00:34:00,
2013-01-25 19:39:00,68.5,58.0,30.18,ENE,66,0.0,0.0,69,0.00,,---,0.00,VWS V13.01,2013-01-26 00:39:00,
2013-01-25 19:44:00,68.4,58.0,30.18,ENE,66,0.0,0.0,69,0.00,,---,0.00,VWS V13.01,2013-01-26 00:44:00,
2013-01-25 19:49:00,68.3,58.1,30.18,ENE,66,0.0,0.0,70,0.00,,---,0.00,VWS V13.01,2013-01-26 00:49:00,
2013-01-25 19:54:00,68.2,58.1,30.18,ENE,66,0.0,0.0,70,0.00,,---,0.00,VWS V13.01,2013-01-26 00:54:00,
2013-01-25 19:59:00,67.9,58.1,30.19,ENE,66,0.0,0.0,71,0.00,,---,0.00,VWS V13.01,2013-01-26 00:59:00,
2013-01-25 20:04:00,67.8,58.3,30.19,ENE,66,0.0,0.0,72,0.00,,---,0.00,VWS V13.01,2013-01-26 01:04:00,
2013-01-25 20:09:00,67.7,58.4,30.19,ENE,66,0.0,0.0,72,0.00,,---,0.00,VWS V13.01,2013-01-26 01:09:00,
2013-01-25 20:14:00,67.3,58.2,30.19,ENE,66,0.0,0.0,72,0.00,,---,0.00,VWS V13.01,2013-01-26 01:14:00,
2013-01-25 20:19:00,67.0,58.0,30.19,ENE,66,0.0,0.0,73,0.00,,---,0.00,VWS V13.01,2013-01-26 01:19:00,
2013-01-25 20:24:00,66.9,58.2,30.20,ENE,66,0.0,0.0,74,0.00,,---,0.00,VWS V13.01,2013-01-26 01:24:00,
2013-01-25 20:29:00,66.8,58.3,30.20,ENE,66,0.0,0.0,74,0.00,,---,0.00,VWS V13.01,2013-01-26 01:29:00,
2013-01-25 20:34:00,66.6,58.4,30.20,ENE,66,0.0,0.0,75,0.00,,---,0.00,VWS V13.01,2013-01-26 01:34:00,
2013-01-25 20:39:00,66.7,58.7,30.20,ENE,66,0.0,0.0,75,0.00,,---,0.00,VWS V13.01,2013-01-26 01:39:00,
2013-01-25 20:44:00,66.3,58.3,30.20,ENE,66,0.0,0.0,75,0.00,,---,0.00,VWS V13.01,2013-01-26 01:44:00,
2013-01-25 20:49:00,66.1,58.1,30.20,ENE,66,0.0,0.0,75,0.00,,---,0.00,VWS V13.01,2013-01-26 01:49:00,
2013-01-25 20:54:00,65.9,58.2,30.20,ENE,66,0.0,0.0,76,0.00,,---,0.00,VWS V13.01,2013-01-26 01:54:00,
2013-01-25 20:59:00,65.8,58.2,30.20,ENE,66,0.0,0.0,76,0.00,,---,0.00,VWS V13.01,2013-01-26 01:59:00,
2013-01-25 21:04:00,65.5,58.1,30.20,ENE,66,0.0,0.0,77,0.00,,---,0.00,VWS V13.01,2013-01-26 02:04:00,
2013-01-25 21:09:00,65.4,58.2,30.21,ENE,66,0.0,0.0,78,0.00,,---,0.00,VWS V13.01,2013-01-26 02:09:00,
2013-01-25 21:14:00,65.1,58.2,30.21,ENE,66,0.0,0.0,78,0.00,,---,0.00,VWS V13.01,2013-01-26 02:14:00,
2013-01-25 21:19:00,65.0,58.2,30.21,ENE,66,0.0,0.0,79,0.00,,---,0.00,VWS V13.01,2013-01-26 02:19:00,
2013-01-25 21:24:00,64.9,58.3,30.21,ENE,66,0.0,0.0,79,0.00,,---,0.00,VWS V13.01,2013-01-26 02:24:00,
2013-01-25 21:29:00,64.4,57.9,30.21,ENE,66,0.0,0.0,79,0.00,,---,0.00,VWS V13.01,2013-01-26 02:29:00,
2013-01-25 21:34:00,64.7,58.3,30.21,ENE,66,0.0,0.0,80,0.00,,---,0.00,VWS V13.01,2013-01-26 02:34:00,
2013-01-25 21:39:00,64.4,58.1,30.21,ENE,66,0.0,0.0,80,0.00,,---,0.00,VWS V13.01,2013-01-26 02:39:00,
2013-01-25 21:44:00,64.6,58.3,30.21,ENE,66,0.0,0.0,80,0.00,,---,0.00,VWS V13.01,2013-01-26 02:44:00,
2013-01-25 21:49:00,64.7,58.5,30.21,ENE,66,0.0,0.0,80,0.00,,---,0.00,VWS V13.01,2013-01-26 02:49:00,
2013-01-25 21:54:00,64.7,58.5,30.21,ENE,66,0.0,0.0,80,0.00,,---,0.00,VWS V13.01,2013-01-26 02:54:00,
2013-01-25 21:59:00,64.7,58.5,30.21,ENE,66,0.0,0.0,80,0.00,,---,0.00,VWS V13.01,2013-01-26 02:59:00,
2013-01-25 22:04:00,64.7,58.4,30.21,ENE,66,0.0,0.0,80,0.00,,---,0.00,VWS V13.01,2013-01-26 03:04:00,
2013-01-25 22:09:00,64.7,58.5,30.21,ENE,66,0.0,0.0,80,0.00,,---,0.00,VWS V13.01,2013-01-26 03:09:00,
2013-01-25 22:14:00,64.4,58.2,30.21,ENE,66,0.0,0.0,80,0.00,,---,0.00,VWS V13.01,2013-01-26 03:14:00,
2013-01-25 22:19:00,64.0,57.9,30.21,ENE,66,0.0,0.0,81,0.00,,---,0.00,VWS V13.01,2013-01-26 03:19:00,
2013-01-25 22:24:00,63.9,58.0,30.21,ENE,66,0.0,0.0,81,0.00,,---,0.00,VWS V13.01,2013-01-26 03:24:00,
2013-01-25 22:29:00,63.9,58.2,30.21,ENE,66,0.0,0.0,82,0.00,,---,0.00,VWS V13.01,2013-01-26 03:29:00,
2013-01-25 22:34:00,63.8,58.2,30.21,ENE,66,0.0,0.0,82,0.00,,---,0.00,VWS V13.01,2013-01-26 03:34:00,
2013-01-25 22:39:00,63.5,57.9,30.21,ENE,66,0.0,0.0,82,0.00,,---,0.00,VWS V13.01,2013-01-26 03:39:00,
2013-01-25 22:44:00,63.7,58.2,30.22,ENE,66,0.0,0.0,82,0.00,,---,0.00,VWS V13.01,2013-01-26 03:44:00,
2013-01-25 22:49:00,63.5,58.0,30.22,ENE,66,0.0,0.0,82,0.00,,---,0.00,VWS V13.01,2013-01-26 03:49:00,
2013-01-25 22:55:00,63.3,58.1,30.22,ENE,66,0.0,0.0,83,0.00,,---,0.00,VWS V13.01,2013-01-26 03:55:00,
2013-01-25 23:00:00,63.2,58.0,30.22,ENE,66,0.0,0.0,83,0.00,,---,0.00,VWS V13.01,2013-01-26 04:00:00,
2013-01-25 23:05:00,63.2,58.1,30.22,ENE,66,0.0,0.0,84,0.00,,---,0.00,VWS V13.01,2013-01-26 04:05:00,
2013-01-25 23:10:00,62.9,57.9,30.22,ENE,66,0.0,0.0,84,0.00,,---,0.00,VWS V13.01,2013-01-26 04:10:00,
2013-01-25 23:15:00,62.9,58.0,30.22,ENE,66,0.0,0.0,84,0.00,,---,0.00,VWS V13.01,2013-01-26 04:15:00,
2013-01-25 23:20:00,62.8,57.9,30.22,ENE,66,0.0,0.0,84,0.00,,---,0.00,VWS V13.01,2013-01-26 04:20:00,
2013-01-25 23:25:00,62.6,57.8,30.22,ENE,66,0.0,0.0,84,0.00,,---,0.00,VWS V13.01,2013-01-26 04:25:00,
2013-01-25 23:30:00,62.5,57.8,30.22,ENE,66,0.0,0.0,85,0.00,,---,0.00,VWS V13.01,2013-01-26 04:30:00,
2013-01-25 23:35:00,62.2,57.6,30.22,ENE,66,0.0,0.0,85,0.00,,---,0.00,VWS V13.01,2013-01-26 04:35:00,
2013-01-25 23:40:00,62.1,57.7,30.22,ENE,66,0.0,0.0,86,0.00,,---,0.00,VWS V13.01,2013-01-26 04:40:00,
2013-01-25 23:45:00,62.0,57.8,30.21,ENE,66,0.0,0.0,86,0.00,,---,0.00,VWS V13.01,2013-01-26 04:45:00,
2013-01-25 23:50:00,62.1,57.9,30.21,ENE,66,0.0,0.0,86,0.00,,---,0.00,VWS V13.01,2013-01-26 04:50:00,
2013-01-25 23:55:00,62.2,58.0,30.21,ENE,66,0.0,0.0,86,0.00,,---,0.00,VWS V13.01,2013-01-26 04:55:00,